createdAt,value
2023-05-20T00:01:50.551Z,84.80
2023-05-20T00:04:17.793Z,84.80
2023-05-20T00:06:45.358Z,84.60
2023-05-20T00:09:12.528Z,84.90
2023-05-20T00:11:39.630Z,84.80
2023-05-20T00:14:06.775Z,84.80
2023-05-20T00:16:34.078Z,84.90
2023-05-20T00:19:01.294Z,84.70
2023-05-20T00:21:28.411Z,84.80
2023-05-20T00:23:56.523Z,84.90
2023-05-20T00:26:23.652Z,85.10
2023-05-20T00:28:50.938Z,85.00
2023-05-20T00:31:18.060Z,85.00
2023-05-20T00:33:45.212Z,84.70
2023-05-20T00:36:12.340Z,84.40
2023-05-20T00:38:39.621Z,84.20
2023-05-20T00:41:06.774Z,84.10
2023-05-20T00:43:33.895Z,84.00
2023-05-20T00:46:01.252Z,84.00
2023-05-20T00:48:33.601Z,84.10
2023-05-20T00:51:01.335Z,84.00
2023-05-20T00:53:28.556Z,84.00
2023-05-20T00:55:55.682Z,83.80
2023-05-20T00:58:22.686Z,83.60
2023-05-20T01:00:49.716Z,83.70
2023-05-20T01:03:17.547Z,83.70
2023-05-20T01:05:44.728Z,83.70
2023-05-20T01:08:11.937Z,83.90
2023-05-20T01:10:42.761Z,84.10
2023-05-20T01:13:11.674Z,84.10
2023-05-20T01:15:39.279Z,84.40
2023-05-20T01:18:06.537Z,84.70
2023-05-20T01:20:33.742Z,84.70
2023-05-20T01:23:00.906Z,84.60
2023-05-20T01:25:27.996Z,84.40
2023-05-20T01:27:56.136Z,84.30
2023-05-20T01:30:23.462Z,84.20
2023-05-20T01:32:55.800Z,84.30
2023-05-20T01:35:23.055Z,84.20
2023-05-20T01:37:50.171Z,84.00
2023-05-20T01:40:17.445Z,83.80
2023-05-20T01:42:45.672Z,83.60
2023-05-20T01:45:12.841Z,83.40
2023-05-20T01:47:39.983Z,83.40
2023-05-20T01:50:10.907Z,83.40
2023-05-20T01:52:38.173Z,83.50
2023-05-20T01:55:05.638Z,83.30
2023-05-20T01:57:32.918Z,83.30
2023-05-20T02:00:00.065Z,83.10
2023-05-20T02:02:27.338Z,82.90
2023-05-20T02:04:54.636Z,82.90
2023-05-20T02:07:21.788Z,82.90
2023-05-20T02:09:48.918Z,83.40
2023-05-20T02:12:19.003Z,83.70
2023-05-20T02:14:46.907Z,84.00
2023-05-20T02:17:17.462Z,84.50
2023-05-20T02:19:44.802Z,84.80
2023-05-20T02:22:12.027Z,84.80
2023-05-20T02:24:39.302Z,84.50
2023-05-20T02:27:07.094Z,84.70
2023-05-20T02:29:34.159Z,84.60
2023-05-20T02:32:01.334Z,84.40
2023-05-20T02:34:28.642Z,84.40
2023-05-20T02:36:56.693Z,85.10
2023-05-20T02:39:23.850Z,84.40
2023-05-20T02:41:50.948Z,84.20
2023-05-20T02:44:18.263Z,84.00
2023-05-20T02:46:45.319Z,84.00
2023-05-20T02:49:12.393Z,84.20
2023-05-20T02:51:41.136Z,84.10
2023-05-20T02:54:08.280Z,84.40
2023-05-20T02:56:35.426Z,84.60
2023-05-20T02:59:03.709Z,84.80
2023-05-20T03:01:30.805Z,84.60
2023-05-20T03:03:57.934Z,84.50
2023-05-20T03:06:25.050Z,84.60
2023-05-20T03:08:52.208Z,84.60
2023-05-20T03:11:19.291Z,84.60
2023-05-20T03:13:46.382Z,84.60
2023-05-20T03:16:13.732Z,84.50
2023-05-20T03:18:40.914Z,84.90
2023-05-20T03:21:08.818Z,85.20
2023-05-20T03:23:36.084Z,85.20
2023-05-20T03:26:03.511Z,85.00
2023-05-20T03:28:30.507Z,85.40
2023-05-20T03:30:57.545Z,85.50
2023-05-20T03:33:26.427Z,85.30
2023-05-20T03:35:53.541Z,85.30
2023-05-20T03:38:20.804Z,85.10
2023-05-20T03:40:47.825Z,85.00
2023-05-20T03:43:14.900Z,85.00
2023-05-20T03:45:42.079Z,84.80
2023-05-20T03:48:09.185Z,84.40
2023-05-20T03:50:36.364Z,84.30
2023-05-20T03:53:03.403Z,84.40
2023-05-20T03:55:30.473Z,84.20
2023-05-20T03:57:57.605Z,84.10
2023-05-20T04:00:24.735Z,84.00
2023-05-20T04:02:51.988Z,84.20
2023-05-20T04:05:19.607Z,84.30
2023-05-20T04:07:47.065Z,83.90
2023-05-20T04:10:14.161Z,84.70
2023-05-20T04:12:41.598Z,84.20
2023-05-20T04:15:09.713Z,84.20
2023-05-20T04:17:38.527Z,84.10
2023-05-20T04:20:07.507Z,84.30
2023-05-20T04:22:35.008Z,84.20
2023-05-20T04:25:03.873Z,84.10
2023-05-20T04:27:31.594Z,84.00
2023-05-20T04:29:59.029Z,83.60
2023-05-20T04:32:27.157Z,83.20
2023-05-20T04:34:56.314Z,83.40
2023-05-20T04:37:23.388Z,83.10
2023-05-20T04:39:51.274Z,82.80
2023-05-20T04:42:19.339Z,82.20
2023-05-20T04:44:46.795Z,82.60
2023-05-20T04:47:14.222Z,82.60
2023-05-20T04:49:41.581Z,82.40
2023-05-20T04:52:08.606Z,82.10
2023-05-20T04:54:35.750Z,82.60
2023-05-20T04:57:03.110Z,82.80
2023-05-20T04:59:30.156Z,82.80
2023-05-20T05:01:57.348Z,82.50
2023-05-20T05:04:24.409Z,82.20
2023-05-20T05:06:51.567Z,81.70
2023-05-20T05:09:18.701Z,81.10
2023-05-20T05:11:45.793Z,80.60
2023-05-20T05:14:12.860Z,80.60
2023-05-20T05:16:40.048Z,80.80
2023-05-20T05:19:07.543Z,80.70
2023-05-20T05:21:34.666Z,80.60
2023-05-20T05:24:01.761Z,80.10
2023-05-20T05:26:28.846Z,79.20
2023-05-20T05:28:57.495Z,78.70
2023-05-20T05:31:24.595Z,78.10
2023-05-20T05:33:51.653Z,77.30
2023-05-20T05:36:18.767Z,76.70
2023-05-20T05:38:45.851Z,76.60
2023-05-20T05:41:12.921Z,76.40
2023-05-20T05:43:39.922Z,76.40
2023-05-20T05:46:06.973Z,76.50
2023-05-20T05:48:34.085Z,77.00
2023-05-20T05:51:01.203Z,77.10
2023-05-20T05:53:28.322Z,76.80
2023-05-20T05:55:55.441Z,76.40
2023-05-20T05:58:22.460Z,75.70
2023-05-20T06:00:52.263Z,75.60
2023-05-20T06:03:19.431Z,75.50
2023-05-20T06:05:47.542Z,75.40
2023-05-20T06:08:14.727Z,74.80
2023-05-20T06:10:41.790Z,75.40
2023-05-20T06:13:08.809Z,75.20
2023-05-20T06:15:36.774Z,75.90
2023-05-20T06:18:04.240Z,74.90
2023-05-20T06:20:31.320Z,73.80
2023-05-20T06:22:58.412Z,74.00
2023-05-20T06:25:25.892Z,74.00
2023-05-20T06:27:53.081Z,74.10
2023-05-20T06:30:20.260Z,74.50
2023-05-20T06:32:47.514Z,74.30
2023-05-20T06:35:14.737Z,74.10
2023-05-20T06:37:41.904Z,73.90
2023-05-20T06:40:09.735Z,73.60
2023-05-20T06:42:36.778Z,74.30
2023-05-20T06:45:04.745Z,74.80
2023-05-20T06:47:31.851Z,74.60
2023-05-20T06:49:58.991Z,74.60
2023-05-20T06:52:26.104Z,74.30
2023-05-20T06:54:53.347Z,73.90
2023-05-20T06:57:20.459Z,73.50
2023-05-20T06:59:47.536Z,74.10
2023-05-20T07:02:14.825Z,74.80
2023-05-20T07:04:42.117Z,73.80
2023-05-20T07:07:09.265Z,72.90
2023-05-20T07:09:36.472Z,73.20
2023-05-20T07:12:03.901Z,73.10
2023-05-20T07:14:30.984Z,72.90
2023-05-20T07:16:58.186Z,72.10
2023-05-20T07:19:25.448Z,71.60
2023-05-20T07:21:52.716Z,72.10
2023-05-20T07:24:19.756Z,71.80
2023-05-20T07:26:47.178Z,72.40
2023-05-20T07:29:20.456Z,72.70
2023-05-20T07:31:47.794Z,74.10
2023-05-20T07:34:14.934Z,74.80
2023-05-20T07:36:42.133Z,75.00
2023-05-20T07:39:13.520Z,74.50
2023-05-20T07:41:42.306Z,74.50
2023-05-20T07:44:11.560Z,73.10
2023-05-20T07:46:39.045Z,72.30
2023-05-20T07:49:06.466Z,70.20
2023-05-20T07:51:33.576Z,70.30
2023-05-20T07:54:02.371Z,69.50
2023-05-20T07:56:30.321Z,69.30
2023-05-20T07:58:59.842Z,69.00
2023-05-20T08:01:27.962Z,68.20
2023-05-20T08:03:55.668Z,67.50
2023-05-20T08:06:25.220Z,68.50
2023-05-20T08:08:56.308Z,69.80
2023-05-20T08:11:23.422Z,70.00
2023-05-20T08:13:50.971Z,69.80
2023-05-20T08:16:18.308Z,68.70
2023-05-20T08:18:45.954Z,68.40
2023-05-20T08:21:14.234Z,67.90
2023-05-20T08:23:41.575Z,68.00
2023-05-20T08:26:10.780Z,68.20
2023-05-20T08:28:39.703Z,66.70
2023-05-20T08:31:07.068Z,67.20
2023-05-20T08:33:34.246Z,66.60
2023-05-20T08:36:01.317Z,66.10
2023-05-20T08:38:28.490Z,66.60
2023-05-20T08:40:58.667Z,67.00
2023-05-20T08:43:25.870Z,67.60
2023-05-20T08:45:53.159Z,68.10
2023-05-20T08:48:20.897Z,67.50
2023-05-20T08:50:53.193Z,66.20
2023-05-20T08:53:22.886Z,66.50
2023-05-20T08:56:17.012Z,65.40
2023-05-20T08:58:44.402Z,63.80
2023-05-20T09:01:11.533Z,63.60
2023-05-20T09:03:38.781Z,63.50
2023-05-20T09:06:07.601Z,63.20
2023-05-20T09:08:34.989Z,62.00
2023-05-20T09:11:02.088Z,60.40
2023-05-20T09:13:31.093Z,60.00
2023-05-20T09:15:59.787Z,60.60
2023-05-20T09:18:27.360Z,59.90
2023-05-20T09:20:59.109Z,58.80
2023-05-20T09:23:27.827Z,58.70
2023-05-20T09:25:54.831Z,58.80
2023-05-20T09:28:25.539Z,58.80
2023-05-20T09:31:00.161Z,55.60
2023-05-20T09:33:30.623Z,54.50
2023-05-20T09:36:04.901Z,53.70
2023-05-20T09:38:38.240Z,53.10
2023-05-20T09:41:08.413Z,53.30
2023-05-20T09:43:36.593Z,52.50
2023-05-20T09:46:04.875Z,51.30
2023-05-20T09:48:34.019Z,52.70
2023-05-20T09:51:01.630Z,51.20
2023-05-20T09:53:29.111Z,50.00
2023-05-20T09:55:56.674Z,48.10
2023-05-20T09:58:24.511Z,44.20
2023-05-20T10:00:52.181Z,44.10
2023-05-20T10:03:19.402Z,44.00
2023-05-20T10:06:20.545Z,45.60
2023-05-20T10:09:10.408Z,45.80
2023-05-20T10:11:55.059Z,47.00
2023-05-20T10:14:34.635Z,46.30
2023-05-20T10:17:23.853Z,44.10
2023-05-20T10:19:51.526Z,44.60
2023-05-20T10:22:28.556Z,42.90
2023-05-20T10:25:00.270Z,42.30
2023-05-20T10:27:27.619Z,42.00
2023-05-20T10:29:56.684Z,41.70
2023-05-20T10:32:31.910Z,41.80
2023-05-20T10:35:05.161Z,40.80
2023-05-20T10:37:43.389Z,41.20
2023-05-20T10:40:11.805Z,41.30
2023-05-20T10:42:39.165Z,41.10
2023-05-20T10:45:07.647Z,40.80
2023-05-20T10:47:35.229Z,41.90
2023-05-20T10:50:05.011Z,43.20
2023-05-20T10:52:38.295Z,41.50
2023-05-20T10:55:11.937Z,41.20
2023-05-20T10:57:39.449Z,43.00
2023-05-20T11:00:11.014Z,43.70
2023-05-20T11:02:38.380Z,45.90
2023-05-20T11:05:06.677Z,47.40
2023-05-20T11:07:34.345Z,48.00
2023-05-20T11:10:01.564Z,48.40
2023-05-20T11:12:28.742Z,47.10
2023-05-20T11:14:55.934Z,47.30
2023-05-20T11:17:23.119Z,48.00
2023-05-20T11:19:51.186Z,47.90
2023-05-20T11:22:18.376Z,44.80
2023-05-20T11:24:46.740Z,43.80
2023-05-20T11:27:13.830Z,44.50
2023-05-20T11:29:40.948Z,43.00
2023-05-20T11:32:09.600Z,43.10
2023-05-20T11:34:37.517Z,43.50
2023-05-20T11:37:09.219Z,44.20
2023-05-20T11:39:36.961Z,45.40
2023-05-20T11:42:04.197Z,45.70
2023-05-20T11:44:31.393Z,46.20
2023-05-20T11:47:02.232Z,45.20
2023-05-20T11:49:29.639Z,44.70
2023-05-20T11:51:57.321Z,46.90
2023-05-20T11:54:24.834Z,45.90
2023-05-20T11:56:52.295Z,43.80
2023-05-20T11:59:19.318Z,45.40
2023-05-20T12:01:46.712Z,46.60
2023-05-20T12:04:15.132Z,47.60
2023-05-20T12:06:44.525Z,46.90
2023-05-20T12:09:12.173Z,46.70
2023-05-20T12:11:41.427Z,46.20
2023-05-20T12:14:09.122Z,46.10
2023-05-20T12:16:36.976Z,45.60
2023-05-20T12:19:04.566Z,46.90
2023-05-20T12:21:31.966Z,47.00
2023-05-20T12:24:02.487Z,47.20
2023-05-20T12:26:30.066Z,47.90
2023-05-20T12:28:57.622Z,47.00
2023-05-20T12:31:25.876Z,47.30
2023-05-20T12:33:53.357Z,46.80
2023-05-20T12:36:20.795Z,45.80
2023-05-20T12:38:47.972Z,44.90
2023-05-20T12:41:15.046Z,45.60
2023-05-20T12:43:42.093Z,43.60
2023-05-20T12:46:09.152Z,44.20
2023-05-20T12:48:37.119Z,43.10
2023-05-20T12:51:04.509Z,43.50
2023-05-20T12:53:31.660Z,43.20
2023-05-20T12:55:58.710Z,42.50
2023-05-20T12:58:25.903Z,42.40
2023-05-20T13:00:53.018Z,43.50
2023-05-20T13:03:20.221Z,42.10
2023-05-20T13:05:47.358Z,42.60
2023-05-20T13:08:15.153Z,41.10
2023-05-20T13:10:42.630Z,41.80
2023-05-20T13:13:09.723Z,42.10
2023-05-20T13:15:37.007Z,42.30
2023-05-20T13:18:06.620Z,43.00
2023-05-20T13:20:34.524Z,43.60
2023-05-20T13:23:01.996Z,44.50
2023-05-20T13:25:29.425Z,44.70
2023-05-20T13:27:56.514Z,43.90
2023-05-20T13:30:23.677Z,43.90
2023-05-20T13:32:50.738Z,44.60
2023-05-20T13:35:18.492Z,43.60
2023-05-20T13:37:45.640Z,43.40
2023-05-20T13:40:13.222Z,43.10
2023-05-20T13:42:40.428Z,44.10
2023-05-20T13:45:08.166Z,44.30
2023-05-20T13:47:35.398Z,43.70
2023-05-20T13:50:03.405Z,44.00
2023-05-20T13:52:31.291Z,43.30
2023-05-20T13:54:58.318Z,42.70
2023-05-20T13:57:25.626Z,41.90
2023-05-20T13:59:52.802Z,42.00
2023-05-20T14:02:20.141Z,41.90
2023-05-20T14:04:47.394Z,43.30
2023-05-20T14:07:14.566Z,43.80
2023-05-20T14:09:41.710Z,44.10
2023-05-20T14:12:08.896Z,43.70
2023-05-20T14:14:36.015Z,42.90
2023-05-20T14:17:03.220Z,44.40
2023-05-20T14:19:30.464Z,43.50
2023-05-20T14:21:59.262Z,43.30
2023-05-20T14:24:26.388Z,43.60
2023-05-20T14:26:53.645Z,43.40
2023-05-20T14:29:21.151Z,42.80
2023-05-20T14:31:48.374Z,43.20
2023-05-20T14:34:15.410Z,43.30
2023-05-20T14:36:42.574Z,43.80
2023-05-20T14:39:09.917Z,44.50
2023-05-20T14:41:37.001Z,43.90
2023-05-20T14:44:04.088Z,44.80
2023-05-20T14:46:31.392Z,45.80
2023-05-20T14:48:58.622Z,45.00
2023-05-20T14:51:25.837Z,44.70
2023-05-20T14:53:52.876Z,44.40
2023-05-20T14:56:20.006Z,43.80
2023-05-20T14:58:47.075Z,44.20
2023-05-20T15:01:14.277Z,44.80
2023-05-20T15:03:41.668Z,45.20
2023-05-20T15:06:08.871Z,45.60
2023-05-20T15:08:35.998Z,46.00
2023-05-20T15:11:03.147Z,46.40
2023-05-20T15:13:30.204Z,45.10
2023-05-20T15:15:57.227Z,45.30
2023-05-20T15:18:24.365Z,44.50
2023-05-20T15:20:51.594Z,44.90
2023-05-20T15:23:18.926Z,45.10
2023-05-20T15:25:46.214Z,45.40
2023-05-20T15:28:13.632Z,45.00
2023-05-20T15:30:40.889Z,45.50
2023-05-20T15:33:08.173Z,46.00
2023-05-20T15:35:35.285Z,45.30
2023-05-20T15:38:02.506Z,45.70
2023-05-20T15:40:29.574Z,45.80
2023-05-20T15:42:57.326Z,45.80
2023-05-20T15:45:24.581Z,46.20
2023-05-20T15:47:51.950Z,45.50
2023-05-20T15:50:19.220Z,46.00
2023-05-20T15:52:46.364Z,45.40
2023-05-20T15:55:13.650Z,45.00
2023-05-20T15:57:43.829Z,45.30
2023-05-20T16:00:12.026Z,45.40
2023-05-20T16:02:40.549Z,45.60
2023-05-20T16:05:09.187Z,45.00
2023-05-20T16:07:36.468Z,45.10
2023-05-20T16:10:03.804Z,45.10
2023-05-20T16:12:30.919Z,44.80
2023-05-20T16:14:58.078Z,45.10
2023-05-20T16:17:25.367Z,44.90
2023-05-20T16:19:52.492Z,44.70
2023-05-20T16:22:19.577Z,44.90
2023-05-20T16:24:46.744Z,44.90
2023-05-20T16:27:13.874Z,45.00
2023-05-20T16:29:41.318Z,44.70
2023-05-20T16:32:08.550Z,45.20
2023-05-20T16:34:35.986Z,44.70
2023-05-20T16:37:03.105Z,44.20
2023-05-20T16:39:30.178Z,44.00
2023-05-20T16:41:57.318Z,44.70
2023-05-20T16:44:24.472Z,45.00
2023-05-20T16:46:54.056Z,44.50
2023-05-20T16:49:21.827Z,44.80
2023-05-20T16:51:50.048Z,44.50
2023-05-20T16:54:17.149Z,44.50
2023-05-20T16:56:44.264Z,44.50
2023-05-20T16:59:17.389Z,44.60
2023-05-20T17:01:44.661Z,44.60
2023-05-20T17:04:11.970Z,44.90
2023-05-20T17:06:40.169Z,45.00
2023-05-20T17:09:07.639Z,45.40
2023-05-20T17:11:34.995Z,45.90
2023-05-20T17:14:02.130Z,45.70
2023-05-20T17:16:29.422Z,45.80
2023-05-20T17:19:00.660Z,46.00
2023-05-20T17:21:27.762Z,46.10
2023-05-20T17:23:54.940Z,46.40
2023-05-20T17:26:22.573Z,46.40
2023-05-20T17:28:49.872Z,46.80
2023-05-20T17:31:23.329Z,46.70
2023-05-20T17:34:06.952Z,47.10
2023-05-20T17:36:37.305Z,47.10
2023-05-20T17:39:05.098Z,47.00
2023-05-20T17:41:32.268Z,47.40
2023-05-20T17:43:59.757Z,47.20
2023-05-20T17:46:27.046Z,47.60
2023-05-20T17:48:58.623Z,47.40
2023-05-20T17:51:25.979Z,48.00
2023-05-20T17:53:53.144Z,47.90
2023-05-20T17:56:20.307Z,48.00
2023-05-20T17:58:48.353Z,48.40
2023-05-20T18:01:15.672Z,48.00
2023-05-20T18:03:44.122Z,48.20
2023-05-20T18:06:15.710Z,48.50
2023-05-20T18:08:42.925Z,49.20
2023-05-20T18:11:10.520Z,48.60
2023-05-20T18:13:37.695Z,48.70
2023-05-20T18:16:05.206Z,48.60
2023-05-20T18:18:32.461Z,49.00
2023-05-20T18:20:59.609Z,48.80
2023-05-20T18:23:26.730Z,48.90
2023-05-20T18:25:53.903Z,49.10
2023-05-20T18:28:21.079Z,49.10
2023-05-20T18:30:48.205Z,49.30
2023-05-20T18:33:15.388Z,48.90
2023-05-20T18:35:42.501Z,49.20
2023-05-20T18:38:09.621Z,49.30
2023-05-20T18:40:36.986Z,49.00
2023-05-20T18:43:04.176Z,49.10
2023-05-20T18:45:31.290Z,48.80
2023-05-20T18:48:00.104Z,49.10
2023-05-20T18:50:27.444Z,48.60
2023-05-20T18:52:54.513Z,48.80
2023-05-20T18:55:21.560Z,49.00
2023-05-20T18:57:48.676Z,49.10
2023-05-20T19:00:17.403Z,49.10
2023-05-20T19:02:44.649Z,49.00
2023-05-20T19:05:12.372Z,49.40
2023-05-20T19:07:39.563Z,49.90
2023-05-20T19:10:07.347Z,51.30
2023-05-20T19:12:34.425Z,52.10
2023-05-20T19:15:01.729Z,52.70
2023-05-20T19:17:28.914Z,52.80
2023-05-20T19:19:56.062Z,52.80
2023-05-20T19:22:23.088Z,52.70
2023-05-20T19:24:50.161Z,52.90
2023-05-20T19:27:17.343Z,52.90
2023-05-20T19:29:44.402Z,52.30
2023-05-20T19:32:11.501Z,52.10
2023-05-20T19:34:38.636Z,52.20
2023-05-20T19:37:05.893Z,52.50
2023-05-20T19:39:33.034Z,52.10
2023-05-20T19:42:02.447Z,52.20
2023-05-20T19:44:29.606Z,52.40
2023-05-20T19:46:56.685Z,52.40
2023-05-20T19:49:23.913Z,52.80
2023-05-20T19:51:51.187Z,53.20
2023-05-20T19:54:18.224Z,53.30
2023-05-20T19:56:45.330Z,53.50
2023-05-20T19:59:12.699Z,53.60
2023-05-20T20:01:39.777Z,54.00
2023-05-20T20:04:07.039Z,53.90
2023-05-20T20:06:34.305Z,54.30
2023-05-20T20:09:01.611Z,54.70
2023-05-20T20:11:28.737Z,55.10
2023-05-20T20:13:58.581Z,55.10
2023-05-20T20:16:27.082Z,55.20
2023-05-20T20:18:54.650Z,55.10
2023-05-20T20:21:22.072Z,55.40
2023-05-20T20:23:49.183Z,55.60
2023-05-20T20:26:16.370Z,55.60
2023-05-20T20:28:43.584Z,55.70
2023-05-20T20:31:10.755Z,55.60
2023-05-20T20:33:37.842Z,55.70
2023-05-20T20:36:05.180Z,55.60
2023-05-20T20:38:32.497Z,55.40
2023-05-20T20:40:59.916Z,55.80
2023-05-20T20:43:29.016Z,55.60
2023-05-20T20:45:56.876Z,55.60
2023-05-20T20:48:27.040Z,55.60
2023-05-20T20:50:54.426Z,56.10
2023-05-20T20:53:21.894Z,56.50
2023-05-20T20:55:51.490Z,56.90
2023-05-20T20:58:19.089Z,57.10
2023-05-20T21:00:48.778Z,57.20
2023-05-20T21:03:16.271Z,57.50
2023-05-20T21:05:44.589Z,58.00
2023-05-20T21:08:22.348Z,58.60
2023-05-20T21:10:52.532Z,58.20
2023-05-20T21:13:20.339Z,58.80
2023-05-20T21:15:51.227Z,59.30
2023-05-20T21:18:22.108Z,59.60
2023-05-20T21:20:56.186Z,59.60
2023-05-20T21:23:23.552Z,59.50
2023-05-20T21:25:52.845Z,59.90
2023-05-20T21:28:20.234Z,60.50
2023-05-20T21:30:47.639Z,60.70
2023-05-20T21:33:15.254Z,60.60
2023-05-20T21:35:45.498Z,60.90
2023-05-20T21:38:21.502Z,61.00
2023-05-20T21:40:48.894Z,61.30
2023-05-20T21:43:16.169Z,61.30
2023-05-20T21:45:43.699Z,61.70
2023-05-20T21:48:11.690Z,62.40
2023-05-20T21:50:39.035Z,62.40
2023-05-20T21:53:06.122Z,62.90
2023-05-20T21:55:33.512Z,63.40
2023-05-20T21:58:00.844Z,63.40
2023-05-20T22:00:28.703Z,63.90
2023-05-20T22:02:56.077Z,64.40
2023-05-20T22:05:23.618Z,64.60
2023-05-20T22:07:51.814Z,64.30
2023-05-20T22:10:22.523Z,63.90
2023-05-20T22:12:51.086Z,64.10
2023-05-20T22:15:18.586Z,64.70
2023-05-20T22:17:47.674Z,64.80
2023-05-20T22:20:17.956Z,65.20
2023-05-20T22:22:45.059Z,65.40
2023-05-20T22:25:12.781Z,65.50
2023-05-20T22:27:43.117Z,65.60
2023-05-20T22:30:11.926Z,65.50
2023-05-20T22:32:39.464Z,64.90
2023-05-20T22:35:07.487Z,66.00
2023-05-20T22:37:34.953Z,65.90
2023-05-20T22:40:02.198Z,66.20
2023-05-20T22:42:29.544Z,66.60
2023-05-20T22:44:57.091Z,66.90
2023-05-20T22:47:24.389Z,66.90
2023-05-20T22:49:51.460Z,66.90
2023-05-20T22:52:18.944Z,67.20
2023-05-20T22:54:45.987Z,67.40
2023-05-20T22:57:13.063Z,67.40
2023-05-20T22:59:40.557Z,67.10
2023-05-20T23:02:08.309Z,67.20
2023-05-20T23:04:35.483Z,67.30
2023-05-20T23:07:02.616Z,67.50
2023-05-20T23:09:29.649Z,67.50
2023-05-20T23:11:57.465Z,67.50
2023-05-20T23:14:24.625Z,67.80
2023-05-20T23:16:51.955Z,67.80
2023-05-20T23:19:19.213Z,68.00
2023-05-20T23:21:46.571Z,68.00
2023-05-20T23:24:13.952Z,68.30
2023-05-20T23:26:41.290Z,68.20
2023-05-20T23:29:08.673Z,67.80
2023-05-20T23:31:36.155Z,67.70
2023-05-20T23:34:04.131Z,68.00
2023-05-20T23:36:34.592Z,68.20
2023-05-20T23:39:04.455Z,68.40
2023-05-20T23:41:34.076Z,68.60
2023-05-20T23:44:01.925Z,68.70
2023-05-20T23:46:29.113Z,69.00
2023-05-20T23:48:56.198Z,69.00
2023-05-20T23:51:23.498Z,68.90
2023-05-20T23:53:50.892Z,68.80
2023-05-20T23:56:18.051Z,68.70
2023-05-20T23:58:45.128Z,68.60
